createdAt,value
2024-04-12T00:03:19.149Z,2.45
2024-04-12T00:07:23.645Z,3.20
2024-04-12T00:11:25.584Z,2.78
2024-04-12T00:15:29.032Z,2.50
2024-04-12T00:19:31.495Z,2.45
2024-04-12T00:23:34.363Z,2.45
2024-04-12T00:27:38.674Z,2.85
2024-04-12T00:31:43.765Z,2.83
2024-04-12T00:35:51.183Z,2.70
2024-04-12T00:39:55.639Z,2.72
2024-04-12T00:43:57.466Z,3.17
2024-04-12T00:48:00.274Z,2.60
2024-04-12T00:52:03.899Z,2.58
2024-04-12T00:56:07.499Z,2.67
2024-04-12T01:00:13.305Z,2.60
2024-04-12T01:04:21.272Z,2.38
2024-04-12T01:08:23.915Z,2.35
2024-04-12T01:12:26.259Z,2.72
2024-04-12T01:16:28.034Z,2.65
2024-04-12T01:20:32.217Z,3.08
2024-04-12T01:24:38.566Z,2.92
2024-04-12T01:28:45.003Z,2.50
2024-04-12T01:32:51.917Z,2.20
2024-04-12T01:36:55.590Z,2.53
2024-04-12T01:41:00.362Z,2.30
2024-04-12T01:45:15.259Z,2.25
2024-04-12T01:49:17.185Z,2.22
2024-04-12T01:53:22.945Z,2.15
2024-04-12T01:57:29.484Z,2.80
2024-04-12T02:01:34.905Z,2.75
2024-04-12T02:05:39.314Z,2.70
2024-04-12T02:09:41.538Z,2.72
2024-04-12T02:13:43.334Z,2.78
2024-04-12T02:17:45.642Z,2.83
2024-04-12T02:21:48.976Z,2.78
2024-04-12T02:25:51.702Z,2.90
2024-04-12T02:29:56.422Z,3.03
2024-04-12T02:33:59.637Z,2.88
2024-04-12T02:38:01.460Z,2.88
2024-04-12T02:42:03.672Z,2.75
2024-04-12T02:46:05.676Z,2.65
2024-04-12T02:50:11.603Z,2.22
2024-04-12T02:54:13.419Z,3.05
2024-04-12T02:58:17.212Z,2.80
2024-04-12T03:02:19.293Z,1.50
2024-04-12T03:06:25.668Z,3.10
2024-04-12T03:10:28.842Z,2.93
2024-04-12T03:14:32.029Z,3.30
2024-04-12T03:18:34.077Z,3.08
2024-04-12T03:22:36.022Z,3.03
2024-04-12T03:26:38.508Z,3.85
2024-04-12T03:30:41.813Z,2.53
2024-04-12T03:34:43.719Z,3.42
2024-04-12T03:38:47.319Z,4.18
2024-04-12T03:42:49.449Z,4.00
2024-04-12T03:46:51.950Z,4.25
2024-04-12T03:51:01.234Z,3.45
2024-04-12T03:55:10.643Z,3.95
2024-04-12T03:59:13.100Z,4.57
2024-04-12T04:03:33.756Z,4.53
2024-04-12T04:07:39.521Z,4.38
2024-04-12T04:11:44.202Z,4.80
2024-04-12T04:15:52.051Z,4.63
2024-04-12T04:19:54.134Z,2.72
2024-04-12T04:23:59.937Z,2.72
2024-04-12T04:28:03.787Z,3.53
2024-04-12T04:32:09.058Z,5.07
2024-04-12T04:36:13.219Z,2.67
2024-04-12T04:40:21.555Z,3.33
2024-04-12T04:44:24.231Z,3.03
2024-04-12T04:48:26.288Z,3.00
2024-04-12T04:52:36.007Z,2.35
2024-04-12T04:56:41.693Z,2.85
2024-04-12T05:00:46.143Z,2.95
2024-04-12T05:04:51.663Z,2.90
2024-04-12T05:08:54.415Z,3.30
2024-04-12T05:12:56.912Z,2.80
2024-04-12T05:16:58.812Z,2.97
2024-04-12T05:21:01.259Z,2.75
2024-04-12T05:25:06.393Z,2.95
2024-04-12T05:29:11.722Z,2.65
2024-04-12T05:33:18.166Z,2.95
2024-04-12T05:37:22.137Z,3.33
2024-04-12T05:41:24.327Z,2.85
2024-04-12T05:45:28.337Z,2.75
2024-04-12T05:49:32.429Z,2.85
2024-04-12T05:53:35.115Z,2.95
2024-04-12T05:57:37.112Z,3.20
2024-04-12T06:01:44.750Z,3.83
2024-04-12T06:05:56.944Z,3.47
2024-04-12T06:09:59.987Z,3.45
2024-04-12T06:14:03.546Z,3.05
2024-04-12T06:18:11.917Z,3.58
2024-04-12T06:22:16.885Z,3.63
2024-04-12T06:26:18.747Z,4.00
2024-04-12T06:30:25.832Z,3.97
2024-04-12T06:34:28.994Z,3.92
2024-04-12T06:38:31.018Z,3.88
2024-04-12T06:42:32.827Z,4.28
2024-04-12T06:46:37.314Z,4.43
2024-04-12T06:50:39.342Z,3.97
2024-04-12T06:54:42.935Z,5.05
2024-04-12T06:58:47.563Z,5.55
2024-04-12T07:02:50.811Z,2.40
2024-04-12T07:06:58.041Z,5.30
2024-04-12T07:11:00.556Z,5.68
2024-04-12T07:15:11.171Z,5.60
2024-04-12T07:19:15.305Z,4.97
2024-04-12T07:23:17.253Z,4.65
2024-04-12T07:27:19.643Z,3.85
2024-04-12T07:31:21.762Z,6.35
2024-04-12T07:35:26.601Z,6.35
2024-04-12T07:39:32.326Z,4.53
2024-04-12T07:43:43.320Z,6.90
2024-04-12T07:47:54.105Z,6.10
2024-04-12T07:51:56.388Z,7.93
2024-04-12T07:56:11.031Z,8.00
2024-04-12T08:00:17.962Z,7.13
2024-04-12T08:04:27.416Z,6.65
2024-04-12T08:08:30.111Z,7.43
2024-04-12T08:12:35.236Z,7.03
2024-04-12T08:16:37.909Z,5.53
2024-04-12T08:20:40.709Z,6.43
2024-04-12T08:24:42.994Z,5.38
2024-04-12T08:28:45.305Z,6.88
2024-04-12T08:32:50.800Z,5.57
2024-04-12T08:36:52.970Z,4.47
2024-04-12T08:40:56.737Z,7.13
2024-04-12T08:45:15.430Z,6.95
2024-04-12T08:49:18.870Z,6.07
2024-04-12T08:53:22.690Z,6.18
2024-04-12T08:57:24.823Z,6.88
2024-04-12T09:01:27.396Z,6.30
2024-04-12T09:05:34.107Z,8.30
2024-04-12T09:09:36.186Z,7.60
2024-04-12T09:13:38.669Z,3.50
2024-04-12T09:17:43.178Z,6.60
2024-04-12T09:22:00.402Z,5.78
2024-04-12T09:26:22.372Z,8.60
2024-04-12T09:30:42.943Z,6.20
2024-04-12T09:34:48.446Z,3.88
2024-04-12T09:38:53.867Z,7.72
2024-04-12T09:42:58.922Z,5.03
2024-04-12T09:47:19.328Z,5.65
2024-04-12T09:51:40.439Z,5.18
2024-04-12T09:56:01.624Z,6.97
2024-04-12T10:00:25.555Z,6.95
2024-04-12T10:04:46.638Z,6.22
2024-04-12T10:09:06.912Z,6.85
2024-04-12T10:13:28.041Z,5.93
2024-04-12T10:17:49.010Z,4.82
2024-04-12T10:22:09.459Z,4.88
2024-04-12T10:26:29.874Z,4.28
2024-04-12T10:30:59.764Z,4.50
2024-04-12T10:35:23.184Z,4.15
2024-04-12T10:39:34.909Z,3.28
2024-04-12T10:43:36.812Z,3.33
2024-04-12T10:47:39.214Z,3.45
2024-04-12T10:51:41.972Z,3.28
2024-04-12T10:55:45.800Z,4.28
2024-04-12T10:59:52.680Z,1.70
2024-04-12T11:04:01.224Z,3.58
2024-04-12T11:08:12.523Z,2.47
2024-04-12T11:12:22.959Z,2.90
2024-04-12T11:16:43.364Z,3.15
2024-04-12T11:21:15.127Z,2.33
2024-04-12T11:25:35.993Z,3.53
2024-04-12T11:29:59.405Z,3.95
2024-04-12T11:34:11.826Z,2.90
2024-04-12T11:38:15.639Z,2.00
2024-04-12T11:42:20.237Z,1.58
2024-04-12T11:46:25.511Z,3.03
2024-04-12T11:50:28.460Z,2.50
2024-04-12T11:54:31.504Z,2.50
2024-04-12T11:58:34.482Z,2.80
2024-04-12T12:02:37.911Z,2.53
2024-04-12T12:06:39.821Z,2.50
2024-04-12T12:10:42.117Z,2.80
2024-04-12T12:14:44.286Z,2.50
2024-04-12T12:18:46.534Z,2.67
2024-04-12T12:22:48.831Z,2.40
2024-04-12T12:27:15.555Z,1.80
2024-04-12T12:31:19.536Z,1.90
2024-04-12T12:35:25.055Z,2.05
2024-04-12T12:39:32.237Z,1.52
2024-04-12T12:43:34.167Z,2.15
2024-04-12T12:47:37.034Z,1.67
2024-04-12T12:51:41.560Z,2.22
2024-04-12T12:55:44.018Z,1.87
2024-04-12T12:59:46.152Z,2.40
2024-04-12T13:03:48.471Z,2.28
2024-04-12T13:07:51.243Z,1.65
2024-04-12T13:11:53.241Z,1.63
2024-04-12T13:15:59.549Z,2.20
2024-04-12T13:20:07.125Z,1.88
2024-04-12T13:24:09.113Z,2.75
2024-04-12T13:28:19.160Z,1.92
2024-04-12T13:32:22.066Z,1.90
2024-04-12T13:36:24.519Z,2.10
2024-04-12T13:40:26.702Z,2.40
2024-04-12T13:44:48.770Z,2.22
2024-04-12T13:49:09.365Z,1.67
2024-04-12T13:53:11.936Z,1.77
2024-04-12T13:57:14.095Z,1.90
2024-04-12T14:01:25.833Z,1.50
2024-04-12T14:05:35.404Z,1.77
2024-04-12T14:09:37.668Z,2.20
2024-04-12T14:13:39.560Z,1.80
2024-04-12T14:17:41.515Z,1.98
2024-04-12T14:21:43.419Z,2.50
2024-04-12T14:25:46.193Z,1.65
2024-04-12T14:29:48.059Z,2.03
2024-04-12T14:33:51.883Z,2.42
2024-04-12T14:37:55.992Z,2.25
2024-04-12T14:41:58.129Z,1.58
2024-04-12T14:46:02.048Z,2.17
2024-04-12T14:50:08.694Z,2.25
2024-04-12T14:54:11.030Z,2.47
2024-04-12T14:58:14.091Z,1.80
2024-04-12T15:02:16.780Z,2.20
2024-04-12T15:06:37.063Z,3.35
2024-04-12T15:10:57.396Z,2.72
2024-04-12T15:15:17.797Z,2.40
2024-04-12T15:19:38.385Z,3.55
2024-04-12T15:23:59.116Z,3.33
2024-04-12T15:28:19.376Z,2.58
2024-04-12T15:32:39.706Z,2.00
2024-04-12T15:36:59.977Z,3.08
2024-04-12T15:41:20.422Z,2.67
2024-04-12T15:45:41.826Z,2.67
2024-04-12T15:49:43.801Z,2.10
2024-04-12T15:53:47.225Z,3.10
2024-04-12T15:58:07.390Z,3.35
2024-04-12T16:02:28.181Z,3.38
2024-04-12T16:06:48.571Z,2.50
2024-04-12T16:10:51.001Z,3.10
2024-04-12T16:14:56.164Z,3.05
2024-04-12T16:18:58.190Z,2.08
2024-04-12T16:23:00.061Z,3.28
2024-04-12T16:27:02.061Z,2.47
2024-04-12T16:31:06.556Z,3.10
2024-04-12T16:35:10.568Z,3.45
2024-04-12T16:39:12.713Z,2.65
2024-04-12T16:43:14.597Z,2.40
2024-04-12T16:47:16.492Z,3.40
2024-04-12T16:51:20.362Z,2.85
2024-04-12T16:55:23.799Z,3.70
2024-04-12T16:59:25.871Z,3.45
2024-04-12T17:03:29.672Z,2.72
2024-04-12T17:07:31.777Z,3.25
2024-04-12T17:11:33.614Z,4.00
2024-04-12T17:15:35.709Z,2.28
2024-04-12T17:19:40.177Z,2.53
2024-04-12T17:23:41.996Z,3.30
2024-04-12T17:27:44.872Z,2.67
2024-04-12T17:31:47.872Z,3.63
2024-04-12T17:35:51.498Z,3.35
2024-04-12T17:39:53.599Z,3.15
2024-04-12T17:43:55.619Z,2.75
2024-04-12T17:47:57.697Z,2.78
2024-04-12T17:51:59.627Z,2.75
2024-04-12T17:56:01.516Z,2.38
2024-04-12T18:00:08.980Z,2.88
2024-04-12T18:04:11.914Z,2.95
2024-04-12T18:08:13.881Z,2.75
2024-04-12T18:12:15.702Z,2.78
2024-04-12T18:16:19.224Z,3.00
2024-04-12T18:20:21.680Z,3.17
2024-04-12T18:24:25.870Z,2.95
2024-04-12T18:28:27.922Z,3.28
2024-04-12T18:32:30.039Z,3.45
2024-04-12T18:36:36.183Z,4.13
2024-04-12T18:40:56.817Z,4.13
2024-04-12T18:45:07.727Z,4.47
2024-04-12T18:49:10.109Z,4.35
2024-04-12T18:53:12.040Z,4.70
2024-04-12T18:57:14.126Z,4.70
2024-04-12T19:01:22.441Z,4.65
2024-04-12T19:05:24.476Z,4.13
2024-04-12T19:09:26.534Z,3.85
2024-04-12T19:13:30.795Z,4.53
2024-04-12T19:17:33.005Z,4.15
2024-04-12T19:21:34.968Z,3.95
2024-04-12T19:25:37.076Z,4.22
2024-04-12T19:29:39.647Z,4.13
2024-04-12T19:33:41.608Z,3.97
2024-04-12T19:37:48.718Z,4.15
2024-04-12T19:45:53.249Z,4.80
2024-04-12T19:49:55.393Z,4.43
2024-04-12T19:53:58.012Z,3.80
2024-04-12T19:58:01.494Z,4.25
2024-04-12T20:02:04.832Z,4.28
2024-04-12T20:06:07.155Z,4.70
2024-04-12T20:10:09.983Z,4.30
2024-04-12T20:14:13.210Z,4.38
2024-04-12T20:18:15.876Z,4.70
2024-04-12T20:22:17.922Z,4.60
2024-04-12T20:26:20.183Z,4.35
2024-04-12T20:30:31.791Z,4.32
2024-04-12T20:34:57.625Z,4.68
2024-04-12T20:38:59.987Z,3.95
2024-04-12T20:43:02.182Z,4.25
2024-04-12T20:47:04.390Z,4.47
2024-04-12T20:51:06.357Z,4.25
2024-04-12T20:55:11.214Z,3.92
2024-04-12T20:59:14.093Z,4.20
2024-04-12T21:03:16.312Z,4.20
2024-04-12T21:07:18.787Z,4.45
2024-04-12T21:11:26.281Z,4.15
2024-04-12T21:15:29.036Z,4.57
2024-04-12T21:19:30.798Z,4.25
2024-04-12T21:23:32.891Z,4.15
2024-04-12T21:27:34.778Z,3.80
2024-04-12T21:31:36.585Z,3.45
2024-04-12T21:35:38.506Z,3.83
2024-04-12T21:39:40.314Z,4.10
2024-04-12T21:43:46.190Z,4.63
2024-04-12T21:47:48.239Z,3.83
2024-04-12T21:51:50.161Z,4.22
2024-04-12T21:55:52.749Z,4.28
2024-04-12T21:59:54.663Z,3.45
2024-04-12T22:03:56.818Z,3.72
2024-04-12T22:07:58.887Z,3.72
2024-04-12T22:12:04.162Z,3.97
2024-04-12T22:16:13.346Z,4.68
2024-04-12T22:20:16.267Z,4.20
2024-04-12T22:24:18.400Z,4.28
2024-04-12T22:28:20.255Z,3.72
2024-04-12T22:32:24.582Z,3.58
2024-04-12T22:36:31.674Z,3.85
2024-04-12T22:40:33.514Z,3.65
2024-04-12T22:44:35.448Z,3.45
2024-04-12T22:48:38.566Z,3.60
2024-04-12T22:52:43.771Z,3.97
2024-04-12T22:56:45.932Z,3.70
2024-04-12T23:00:47.962Z,3.78
2024-04-12T23:04:49.866Z,3.97
2024-04-12T23:08:52.155Z,3.33
2024-04-12T23:12:54.109Z,3.55
2024-04-12T23:16:56.095Z,3.28
2024-04-12T23:20:58.075Z,3.72
2024-04-12T23:25:01.490Z,4.45
2024-04-12T23:29:03.313Z,4.18
2024-04-12T23:33:05.468Z,4.30
2024-04-12T23:37:10.574Z,4.85
2024-04-12T23:41:12.383Z,3.60
2024-04-12T23:45:16.552Z,4.32
2024-04-12T23:49:18.895Z,4.13
2024-04-12T23:53:21.407Z,4.07
2024-04-12T23:57:23.219Z,3.63
